sensor_id;sensor_type;location;lat;lon;timestamp;P1;durP1;ratioP1;P2;durP2;ratioP2
60847;SDS011;46681;47.696;9.140;2022-12-18T00:01:00;24.40;;;19.00;;
60847;SDS011;46681;47.696;9.140;2022-12-18T00:03:26;24.70;;;18.33;;
60847;SDS011;46681;47.696;9.140;2022-12-18T00:05:52;26.67;;;20.03;;
60847;SDS011;46681;47.696;9.140;2022-12-18T00:08:18;24.67;;;19.10;;
60847;SDS011;46681;47.696;9.140;2022-12-18T00:10:44;22.93;;;17.83;;
60847;SDS011;46681;47.696;9.140;2022-12-18T00:13:11;25.30;;;19.27;;
60847;SDS011;46681;47.696;9.140;2022-12-18T00:15:38;23.20;;;17.73;;
60847;SDS011;46681;47.696;9.140;2022-12-18T00:18:05;24.17;;;18.60;;
60847;SDS011;46681;47.696;9.140;2022-12-18T00:20:32;23.63;;;18.20;;
60847;SDS011;46681;47.696;9.140;2022-12-18T00:23:04;25.93;;;18.97;;
60847;SDS011;46681;47.696;9.140;2022-12-18T00:25:34;25.93;;;19.27;;
60847;SDS011;46681;47.696;9.140;2022-12-18T00:28:03;26.20;;;18.90;;
60847;SDS011;46681;47.696;9.140;2022-12-18T00:30:29;26.73;;;19.80;;
60847;SDS011;46681;47.696;9.140;2022-12-18T00:32:54;26.97;;;20.27;;
60847;SDS011;46681;47.696;9.140;2022-12-18T00:35:20;25.57;;;19.20;;
60847;SDS011;46681;47.696;9.140;2022-12-18T00:37:48;25.97;;;19.50;;
60847;SDS011;46681;47.696;9.140;2022-12-18T00:40:14;25.87;;;19.73;;
60847;SDS011;46681;47.696;9.140;2022-12-18T00:42:39;25.97;;;20.07;;
60847;SDS011;46681;47.696;9.140;2022-12-18T00:45:05;26.40;;;19.63;;
60847;SDS011;46681;47.696;9.140;2022-12-18T00:47:31;26.90;;;20.47;;
60847;SDS011;46681;47.696;9.140;2022-12-18T00:49:57;27.80;;;19.53;;
60847;SDS011;46681;47.696;9.140;2022-12-18T00:52:22;26.57;;;19.40;;
60847;SDS011;46681;47.696;9.140;2022-12-18T00:54:48;27.23;;;19.90;;
60847;SDS011;46681;47.696;9.140;2022-12-18T00:57:14;29.50;;;20.67;;
60847;SDS011;46681;47.696;9.140;2022-12-18T00:59:40;27.77;;;19.83;;
60847;SDS011;46681;47.696;9.140;2022-12-18T01:02:05;31.57;;;21.13;;
60847;SDS011;46681;47.696;9.140;2022-12-18T01:04:31;27.13;;;19.93;;
60847;SDS011;46681;47.696;9.140;2022-12-18T01:06:59;28.30;;;19.90;;
60847;SDS011;46681;47.696;9.140;2022-12-18T01:09:26;28.57;;;20.43;;
60847;SDS011;46681;47.696;9.140;2022-12-18T01:11:53;31.17;;;20.67;;
60847;SDS011;46681;47.696;9.140;2022-12-18T01:14:19;30.60;;;21.33;;
60847;SDS011;46681;47.696;9.140;2022-12-18T01:16:45;26.93;;;20.30;;
60847;SDS011;46681;47.696;9.140;2022-12-18T01:19:10;25.93;;;20.00;;
60847;SDS011;46681;47.696;9.140;2022-12-18T01:21:36;28.20;;;20.53;;
60847;SDS011;46681;47.696;9.140;2022-12-18T01:24:01;27.50;;;20.93;;
60847;SDS011;46681;47.696;9.140;2022-12-18T01:26:27;28.67;;;20.73;;
60847;SDS011;46681;47.696;9.140;2022-12-18T01:28:54;28.13;;;21.00;;
60847;SDS011;46681;47.696;9.140;2022-12-18T01:31:21;28.60;;;21.10;;
60847;SDS011;46681;47.696;9.140;2022-12-18T01:33:51;26.57;;;20.03;;
60847;SDS011;46681;47.696;9.140;2022-12-18T01:36:18;27.67;;;21.10;;
60847;SDS011;46681;47.696;9.140;2022-12-18T01:38:52;31.10;;;22.30;;
60847;SDS011;46681;47.696;9.140;2022-12-18T01:41:20;27.60;;;20.40;;
60847;SDS011;46681;47.696;9.140;2022-12-18T01:43:49;29.63;;;20.93;;
60847;SDS011;46681;47.696;9.140;2022-12-18T01:46:20;26.77;;;20.47;;
60847;SDS011;46681;47.696;9.140;2022-12-18T01:48:51;28.60;;;20.40;;
60847;SDS011;46681;47.696;9.140;2022-12-18T01:51:22;30.63;;;21.03;;
60847;SDS011;46681;47.696;9.140;2022-12-18T01:53:48;30.27;;;21.70;;
60847;SDS011;46681;47.696;9.140;2022-12-18T01:56:18;28.60;;;21.00;;
60847;SDS011;46681;47.696;9.140;2022-12-18T01:58:50;29.60;;;20.93;;
60847;SDS011;46681;47.696;9.140;2022-12-18T02:01:21;31.00;;;21.87;;
60847;SDS011;46681;47.696;9.140;2022-12-18T02:03:53;26.43;;;19.87;;
60847;SDS011;46681;47.696;9.140;2022-12-18T02:06:34;27.33;;;21.63;;
60847;SDS011;46681;47.696;9.140;2022-12-18T02:09:07;29.83;;;20.90;;
60847;SDS011;46681;47.696;9.140;2022-12-18T02:11:49;26.27;;;19.73;;
60847;SDS011;46681;47.696;9.140;2022-12-18T02:17:22;30.47;;;21.50;;
60847;SDS011;46681;47.696;9.140;2022-12-18T02:20:13;28.67;;;20.80;;
60847;SDS011;46681;47.696;9.140;2022-12-18T02:28:22;27.40;;;20.60;;
60847;SDS011;46681;47.696;9.140;2022-12-18T02:30:53;26.50;;;19.87;;
60847;SDS011;46681;47.696;9.140;2022-12-18T02:33:27;28.73;;;19.90;;
60847;SDS011;46681;47.696;9.140;2022-12-18T02:35:55;27.97;;;20.60;;
60847;SDS011;46681;47.696;9.140;2022-12-18T02:38:23;28.10;;;20.27;;
60847;SDS011;46681;47.696;9.140;2022-12-18T02:40:50;26.63;;;19.80;;
60847;SDS011;46681;47.696;9.140;2022-12-18T02:43:18;28.07;;;20.73;;
60847;SDS011;46681;47.696;9.140;2022-12-18T02:45:47;26.17;;;20.13;;
60847;SDS011;46681;47.696;9.140;2022-12-18T02:48:17;30.43;;;21.03;;
60847;SDS011;46681;47.696;9.140;2022-12-18T02:51:38;26.37;;;19.70;;
60847;SDS011;46681;47.696;9.140;2022-12-18T02:54:30;26.80;;;19.17;;
60847;SDS011;46681;47.696;9.140;2022-12-18T02:56:51;25.43;;;18.80;;
60847;SDS011;46681;47.696;9.140;2022-12-18T02:59:28;28.40;;;20.23;;
60847;SDS011;46681;47.696;9.140;2022-12-18T03:04:38;28.07;;;20.97;;
60847;SDS011;46681;47.696;9.140;2022-12-18T03:07:15;27.80;;;20.20;;
60847;SDS011;46681;47.696;9.140;2022-12-18T03:09:46;26.10;;;19.53;;
60847;SDS011;46681;47.696;9.140;2022-12-18T03:12:16;26.80;;;19.90;;
60847;SDS011;46681;47.696;9.140;2022-12-18T03:14:58;26.30;;;19.87;;
60847;SDS011;46681;47.696;9.140;2022-12-18T03:17:30;26.70;;;19.37;;
60847;SDS011;46681;47.696;9.140;2022-12-18T03:19:58;25.60;;;18.87;;
60847;SDS011;46681;47.696;9.140;2022-12-18T03:22:30;24.10;;;18.63;;
60847;SDS011;46681;47.696;9.140;2022-12-18T03:24:58;27.63;;;19.47;;
60847;SDS011;46681;47.696;9.140;2022-12-18T03:27:27;27.57;;;19.83;;
60847;SDS011;46681;47.696;9.140;2022-12-18T03:29:57;26.37;;;18.10;;
60847;SDS011;46681;47.696;9.140;2022-12-18T03:32:30;23.53;;;17.33;;
60847;SDS011;46681;47.696;9.140;2022-12-18T03:34:59;26.00;;;18.53;;
60847;SDS011;46681;47.696;9.140;2022-12-18T03:37:28;25.90;;;18.17;;
60847;SDS011;46681;47.696;9.140;2022-12-18T03:39:54;24.93;;;19.00;;
60847;SDS011;46681;47.696;9.140;2022-12-18T03:42:27;25.17;;;18.23;;
60847;SDS011;46681;47.696;9.140;2022-12-18T03:50:16;26.17;;;18.10;;
60847;SDS011;46681;47.696;9.140;2022-12-18T03:52:52;23.53;;;18.27;;
60847;SDS011;46681;47.696;9.140;2022-12-18T03:55:24;25.57;;;18.70;;
60847;SDS011;46681;47.696;9.140;2022-12-18T03:57:52;23.37;;;17.50;;
60847;SDS011;46681;47.696;9.140;2022-12-18T04:00:19;24.37;;;18.10;;
60847;SDS011;46681;47.696;9.140;2022-12-18T04:02:53;24.13;;;17.50;;
60847;SDS011;46681;47.696;9.140;2022-12-18T04:05:22;23.00;;;17.47;;
60847;SDS011;46681;47.696;9.140;2022-12-18T04:07:50;24.37;;;17.73;;
60847;SDS011;46681;47.696;9.140;2022-12-18T04:10:18;25.23;;;17.93;;
60847;SDS011;46681;47.696;9.140;2022-12-18T04:12:44;23.67;;;17.87;;
60847;SDS011;46681;47.696;9.140;2022-12-18T04:15:10;21.57;;;16.77;;
60847;SDS011;46681;47.696;9.140;2022-12-18T04:17:36;22.30;;;16.80;;
60847;SDS011;46681;47.696;9.140;2022-12-18T04:20:03;24.27;;;17.13;;
60847;SDS011;46681;47.696;9.140;2022-12-18T04:22:28;23.77;;;17.73;;
60847;SDS011;46681;47.696;9.140;2022-12-18T04:24:54;24.93;;;18.40;;
60847;SDS011;46681;47.696;9.140;2022-12-18T04:27:19;25.07;;;18.67;;
60847;SDS011;46681;47.696;9.140;2022-12-18T04:29:45;23.83;;;17.03;;
60847;SDS011;46681;47.696;9.140;2022-12-18T04:32:11;23.63;;;17.90;;
60847;SDS011;46681;47.696;9.140;2022-12-18T04:34:36;24.23;;;17.67;;
60847;SDS011;46681;47.696;9.140;2022-12-18T04:37:02;25.57;;;18.13;;
60847;SDS011;46681;47.696;9.140;2022-12-18T04:39:27;23.67;;;17.40;;
60847;SDS011;46681;47.696;9.140;2022-12-18T04:41:54;22.83;;;17.07;;
60847;SDS011;46681;47.696;9.140;2022-12-18T04:44:20;23.47;;;17.83;;
60847;SDS011;46681;47.696;9.140;2022-12-18T04:46:45;22.93;;;17.10;;
60847;SDS011;46681;47.696;9.140;2022-12-18T04:49:11;23.70;;;17.93;;
60847;SDS011;46681;47.696;9.140;2022-12-18T04:51:36;23.47;;;17.43;;
60847;SDS011;46681;47.696;9.140;2022-12-18T04:54:02;24.70;;;18.13;;
60847;SDS011;46681;47.696;9.140;2022-12-18T04:56:27;22.73;;;17.03;;
60847;SDS011;46681;47.696;9.140;2022-12-18T04:58:55;23.60;;;17.30;;
60847;SDS011;46681;47.696;9.140;2022-12-18T05:01:20;23.63;;;17.23;;
60847;SDS011;46681;47.696;9.140;2022-12-18T05:03:46;24.10;;;17.73;;
60847;SDS011;46681;47.696;9.140;2022-12-18T05:06:11;20.93;;;16.10;;
60847;SDS011;46681;47.696;9.140;2022-12-18T05:08:37;23.20;;;17.53;;
60847;SDS011;46681;47.696;9.140;2022-12-18T05:11:04;20.63;;;16.10;;
60847;SDS011;46681;47.696;9.140;2022-12-18T05:13:31;23.67;;;17.73;;
60847;SDS011;46681;47.696;9.140;2022-12-18T05:15:57;23.57;;;16.60;;
60847;SDS011;46681;47.696;9.140;2022-12-18T05:18:22;24.60;;;16.77;;
60847;SDS011;46681;47.696;9.140;2022-12-18T05:20:49;22.90;;;17.37;;
60847;SDS011;46681;47.696;9.140;2022-12-18T05:23:15;24.10;;;17.37;;
60847;SDS011;46681;47.696;9.140;2022-12-18T05:25:40;22.80;;;17.27;;
60847;SDS011;46681;47.696;9.140;2022-12-18T05:28:06;22.00;;;16.97;;
60847;SDS011;46681;47.696;9.140;2022-12-18T05:30:32;24.13;;;17.53;;
60847;SDS011;46681;47.696;9.140;2022-12-18T05:32:59;24.63;;;17.70;;
60847;SDS011;46681;47.696;9.140;2022-12-18T05:35:24;25.60;;;17.10;;
60847;SDS011;46681;47.696;9.140;2022-12-18T05:37:50;22.77;;;16.90;;
60847;SDS011;46681;47.696;9.140;2022-12-18T05:40:15;22.37;;;16.53;;
60847;SDS011;46681;47.696;9.140;2022-12-18T05:42:41;23.43;;;17.60;;
60847;SDS011;46681;47.696;9.140;2022-12-18T05:45:06;21.70;;;16.27;;
60847;SDS011;46681;47.696;9.140;2022-12-18T05:47:33;21.70;;;16.63;;
60847;SDS011;46681;47.696;9.140;2022-12-18T05:49:59;21.40;;;16.67;;
60847;SDS011;46681;47.696;9.140;2022-12-18T05:52:24;22.77;;;16.07;;
60847;SDS011;46681;47.696;9.140;2022-12-18T05:54:50;21.77;;;16.00;;
60847;SDS011;46681;47.696;9.140;2022-12-18T05:57:15;20.80;;;15.63;;
60847;SDS011;46681;47.696;9.140;2022-12-18T05:59:41;22.77;;;16.57;;
60847;SDS011;46681;47.696;9.140;2022-12-18T06:02:06;22.63;;;16.53;;
60847;SDS011;46681;47.696;9.140;2022-12-18T06:04:32;21.13;;;15.50;;
60847;SDS011;46681;47.696;9.140;2022-12-18T06:06:58;21.33;;;16.30;;
60847;SDS011;46681;47.696;9.140;2022-12-18T06:09:23;21.00;;;16.23;;
60847;SDS011;46681;47.696;9.140;2022-12-18T06:11:50;21.93;;;17.00;;
60847;SDS011;46681;47.696;9.140;2022-12-18T06:14:17;21.50;;;16.17;;
60847;SDS011;46681;47.696;9.140;2022-12-18T06:16:42;21.30;;;16.37;;
60847;SDS011;46681;47.696;9.140;2022-12-18T06:19:12;21.13;;;16.00;;
60847;SDS011;46681;47.696;9.140;2022-12-18T06:21:40;23.17;;;17.27;;
60847;SDS011;46681;47.696;9.140;2022-12-18T06:24:05;23.63;;;16.40;;
60847;SDS011;46681;47.696;9.140;2022-12-18T06:26:31;24.03;;;17.87;;
60847;SDS011;46681;47.696;9.140;2022-12-18T06:28:57;22.27;;;17.07;;
60847;SDS011;46681;47.696;9.140;2022-12-18T06:31:22;24.70;;;17.57;;
60847;SDS011;46681;47.696;9.140;2022-12-18T06:33:48;22.93;;;16.40;;
60847;SDS011;46681;47.696;9.140;2022-12-18T06:36:13;21.93;;;16.33;;
60847;SDS011;46681;47.696;9.140;2022-12-18T06:38:40;24.97;;;17.60;;
60847;SDS011;46681;47.696;9.140;2022-12-18T06:41:11;26.67;;;19.03;;
60847;SDS011;46681;47.696;9.140;2022-12-18T06:43:38;25.20;;;18.90;;
60847;SDS011;46681;47.696;9.140;2022-12-18T06:46:04;24.83;;;17.73;;
60847;SDS011;46681;47.696;9.140;2022-12-18T06:48:30;24.97;;;18.03;;
60847;SDS011;46681;47.696;9.140;2022-12-18T06:50:57;24.83;;;18.20;;
60847;SDS011;46681;47.696;9.140;2022-12-18T06:53:23;25.47;;;17.70;;
60847;SDS011;46681;47.696;9.140;2022-12-18T06:55:49;23.97;;;17.47;;
60847;SDS011;46681;47.696;9.140;2022-12-18T06:58:14;26.27;;;18.83;;
60847;SDS011;46681;47.696;9.140;2022-12-18T07:00:41;25.17;;;18.47;;
60847;SDS011;46681;47.696;9.140;2022-12-18T07:03:06;25.23;;;18.47;;
60847;SDS011;46681;47.696;9.140;2022-12-18T07:05:32;28.03;;;19.83;;
60847;SDS011;46681;47.696;9.140;2022-12-18T07:07:59;25.17;;;18.70;;
60847;SDS011;46681;47.696;9.140;2022-12-18T07:10:24;25.60;;;18.53;;
60847;SDS011;46681;47.696;9.140;2022-12-18T07:12:52;25.40;;;18.70;;
60847;SDS011;46681;47.696;9.140;2022-12-18T07:15:17;26.40;;;20.07;;
60847;SDS011;46681;47.696;9.140;2022-12-18T07:17:43;25.83;;;18.03;;
60847;SDS011;46681;47.696;9.140;2022-12-18T07:20:09;26.00;;;19.07;;
60847;SDS011;46681;47.696;9.140;2022-12-18T07:22:34;25.53;;;17.93;;
60847;SDS011;46681;47.696;9.140;2022-12-18T07:25:00;27.57;;;19.87;;
60847;SDS011;46681;47.696;9.140;2022-12-18T07:27:26;28.47;;;18.97;;
60847;SDS011;46681;47.696;9.140;2022-12-18T07:29:52;24.83;;;17.73;;
60847;SDS011;46681;47.696;9.140;2022-12-18T07:32:18;28.07;;;19.87;;
60847;SDS011;46681;47.696;9.140;2022-12-18T07:34:44;25.77;;;19.23;;
60847;SDS011;46681;47.696;9.140;2022-12-18T07:37:09;26.87;;;19.03;;
60847;SDS011;46681;47.696;9.140;2022-12-18T07:39:35;26.70;;;19.83;;
60847;SDS011;46681;47.696;9.140;2022-12-18T07:42:00;25.50;;;19.10;;
60847;SDS011;46681;47.696;9.140;2022-12-18T07:44:28;26.97;;;19.47;;
60847;SDS011;46681;47.696;9.140;2022-12-18T07:46:53;29.60;;;21.10;;
60847;SDS011;46681;47.696;9.140;2022-12-18T07:49:19;28.73;;;20.63;;
60847;SDS011;46681;47.696;9.140;2022-12-18T07:51:44;28.83;;;20.27;;
60847;SDS011;46681;47.696;9.140;2022-12-18T07:54:10;27.97;;;19.80;;
60847;SDS011;46681;47.696;9.140;2022-12-18T07:56:35;27.00;;;19.83;;
60847;SDS011;46681;47.696;9.140;2022-12-18T07:59:01;27.00;;;19.40;;
60847;SDS011;46681;47.696;9.140;2022-12-18T08:01:28;29.03;;;20.47;;
60847;SDS011;46681;47.696;9.140;2022-12-18T08:03:54;28.27;;;19.97;;
60847;SDS011;46681;47.696;9.140;2022-12-18T08:06:19;28.03;;;19.13;;
60847;SDS011;46681;47.696;9.140;2022-12-18T08:08:45;26.40;;;18.87;;
60847;SDS011;46681;47.696;9.140;2022-12-18T08:11:10;27.57;;;19.83;;
60847;SDS011;46681;47.696;9.140;2022-12-18T08:13:36;27.30;;;20.07;;
60847;SDS011;46681;47.696;9.140;2022-12-18T08:16:05;25.97;;;19.53;;
60847;SDS011;46681;47.696;9.140;2022-12-18T08:18:32;25.97;;;18.30;;
60847;SDS011;46681;47.696;9.140;2022-12-18T08:21:07;25.27;;;18.70;;
60847;SDS011;46681;47.696;9.140;2022-12-18T08:23:50;26.20;;;19.10;;
60847;SDS011;46681;47.696;9.140;2022-12-18T08:26:19;28.17;;;19.40;;
60847;SDS011;46681;47.696;9.140;2022-12-18T08:28:45;28.20;;;19.60;;
60847;SDS011;46681;47.696;9.140;2022-12-18T08:31:10;27.00;;;17.50;;
60847;SDS011;46681;47.696;9.140;2022-12-18T08:33:36;26.20;;;18.83;;
60847;SDS011;46681;47.696;9.140;2022-12-18T08:36:03;28.50;;;20.33;;
60847;SDS011;46681;47.696;9.140;2022-12-18T08:38:34;27.77;;;19.57;;
60847;SDS011;46681;47.696;9.140;2022-12-18T08:41:04;26.23;;;18.43;;
60847;SDS011;46681;47.696;9.140;2022-12-18T08:43:37;28.17;;;20.13;;
60847;SDS011;46681;47.696;9.140;2022-12-18T08:46:03;30.27;;;21.30;;
60847;SDS011;46681;47.696;9.140;2022-12-18T08:48:30;30.43;;;22.27;;
60847;SDS011;46681;47.696;9.140;2022-12-18T08:50:56;30.33;;;20.00;;
60847;SDS011;46681;47.696;9.140;2022-12-18T08:53:23;30.30;;;20.57;;
60847;SDS011;46681;47.696;9.140;2022-12-18T08:55:49;28.40;;;21.07;;
60847;SDS011;46681;47.696;9.140;2022-12-18T08:58:14;26.83;;;19.57;;
60847;SDS011;46681;47.696;9.140;2022-12-18T09:00:41;31.93;;;20.17;;
60847;SDS011;46681;47.696;9.140;2022-12-18T09:03:13;27.60;;;19.50;;
60847;SDS011;46681;47.696;9.140;2022-12-18T09:05:41;27.00;;;20.10;;
60847;SDS011;46681;47.696;9.140;2022-12-18T09:08:08;28.10;;;19.10;;
60847;SDS011;46681;47.696;9.140;2022-12-18T09:10:34;26.90;;;18.87;;
60847;SDS011;46681;47.696;9.140;2022-12-18T09:13:06;26.40;;;19.77;;
60847;SDS011;46681;47.696;9.140;2022-12-18T09:15:33;30.43;;;20.57;;
60847;SDS011;46681;47.696;9.140;2022-12-18T09:17:58;27.93;;;19.00;;
60847;SDS011;46681;47.696;9.140;2022-12-18T09:20:24;27.80;;;19.47;;
60847;SDS011;46681;47.696;9.140;2022-12-18T09:22:49;27.03;;;19.93;;
60847;SDS011;46681;47.696;9.140;2022-12-18T09:25:16;25.80;;;18.17;;
60847;SDS011;46681;47.696;9.140;2022-12-18T09:27:42;27.40;;;18.67;;
60847;SDS011;46681;47.696;9.140;2022-12-18T09:30:08;27.87;;;18.97;;
60847;SDS011;46681;47.696;9.140;2022-12-18T09:32:34;27.53;;;20.07;;
60847;SDS011;46681;47.696;9.140;2022-12-18T09:35:01;25.93;;;19.23;;
60847;SDS011;46681;47.696;9.140;2022-12-18T09:37:28;25.87;;;19.37;;
60847;SDS011;46681;47.696;9.140;2022-12-18T09:39:53;27.03;;;19.37;;
60847;SDS011;46681;47.696;9.140;2022-12-18T09:42:20;25.50;;;19.00;;
60847;SDS011;46681;47.696;9.140;2022-12-18T09:44:49;28.07;;;19.83;;
60847;SDS011;46681;47.696;9.140;2022-12-18T09:47:23;27.03;;;18.67;;
60847;SDS011;46681;47.696;9.140;2022-12-18T09:49:53;29.23;;;20.10;;
60847;SDS011;46681;47.696;9.140;2022-12-18T09:52:23;24.90;;;18.50;;
60847;SDS011;46681;47.696;9.140;2022-12-18T09:55:05;26.83;;;19.13;;
60847;SDS011;46681;47.696;9.140;2022-12-18T09:57:35;28.43;;;19.80;;
60847;SDS011;46681;47.696;9.140;2022-12-18T10:00:15;27.83;;;20.17;;
60847;SDS011;46681;47.696;9.140;2022-12-18T10:02:45;29.23;;;19.00;;
60847;SDS011;46681;47.696;9.140;2022-12-18T10:07:53;28.27;;;19.23;;
60847;SDS011;46681;47.696;9.140;2022-12-18T10:21:32;27.43;;;18.77;;
60847;SDS011;46681;47.696;9.140;2022-12-18T10:24:08;27.70;;;19.13;;
60847;SDS011;46681;47.696;9.140;2022-12-18T10:26:41;27.97;;;17.97;;
60847;SDS011;46681;47.696;9.140;2022-12-18T10:29:12;29.13;;;20.67;;
60847;SDS011;46681;47.696;9.140;2022-12-18T10:31:43;30.20;;;20.77;;
60847;SDS011;46681;47.696;9.140;2022-12-18T10:34:10;31.50;;;19.80;;
60847;SDS011;46681;47.696;9.140;2022-12-18T10:36:38;29.53;;;20.03;;
60847;SDS011;46681;47.696;9.140;2022-12-18T10:39:14;26.07;;;18.57;;
60847;SDS011;46681;47.696;9.140;2022-12-18T10:41:51;27.33;;;18.83;;
60847;SDS011;46681;47.696;9.140;2022-12-18T10:44:36;27.50;;;19.90;;
60847;SDS011;46681;47.696;9.140;2022-12-18T10:47:05;33.30;;;19.70;;
60847;SDS011;46681;47.696;9.140;2022-12-18T10:49:38;31.67;;;23.00;;
60847;SDS011;46681;47.696;9.140;2022-12-18T10:54:51;30.90;;;22.00;;
60847;SDS011;46681;47.696;9.140;2022-12-18T10:59:56;35.07;;;22.67;;
60847;SDS011;46681;47.696;9.140;2022-12-18T11:02:37;32.40;;;21.70;;
60847;SDS011;46681;47.696;9.140;2022-12-18T11:05:22;29.20;;;19.40;;
60847;SDS011;46681;47.696;9.140;2022-12-18T11:07:49;29.40;;;20.43;;
60847;SDS011;46681;47.696;9.140;2022-12-18T11:10:16;27.10;;;19.07;;
60847;SDS011;46681;47.696;9.140;2022-12-18T11:12:45;28.70;;;19.67;;
60847;SDS011;46681;47.696;9.140;2022-12-18T11:15:23;27.93;;;20.00;;
60847;SDS011;46681;47.696;9.140;2022-12-18T11:17:55;30.70;;;18.80;;
60847;SDS011;46681;47.696;9.140;2022-12-18T11:25:59;26.93;;;18.70;;
60847;SDS011;46681;47.696;9.140;2022-12-18T11:28:37;26.73;;;18.50;;
60847;SDS011;46681;47.696;9.140;2022-12-18T11:31:26;25.83;;;18.70;;
60847;SDS011;46681;47.696;9.140;2022-12-18T11:33:59;26.43;;;18.93;;
60847;SDS011;46681;47.696;9.140;2022-12-18T11:36:28;27.37;;;18.40;;
60847;SDS011;46681;47.696;9.140;2022-12-18T11:39:09;25.03;;;17.80;;
60847;SDS011;46681;47.696;9.140;2022-12-18T11:41:59;27.73;;;19.30;;
60847;SDS011;46681;47.696;9.140;2022-12-18T11:44:36;23.67;;;16.77;;
60847;SDS011;46681;47.696;9.140;2022-12-18T11:50:16;24.87;;;17.67;;
60847;SDS011;46681;47.696;9.140;2022-12-18T11:52:51;25.57;;;17.93;;
60847;SDS011;46681;47.696;9.140;2022-12-18T12:01:28;25.40;;;17.07;;
60847;SDS011;46681;47.696;9.140;2022-12-18T12:09:32;20.30;;;16.03;;
60847;SDS011;46681;47.696;9.140;2022-12-18T12:12:15;24.17;;;16.73;;
60847;SDS011;46681;47.696;9.140;2022-12-18T12:15:13;20.97;;;16.47;;
60847;SDS011;46681;47.696;9.140;2022-12-18T12:18:06;24.03;;;17.30;;
60847;SDS011;46681;47.696;9.140;2022-12-18T12:20:49;23.73;;;16.30;;
60847;SDS011;46681;47.696;9.140;2022-12-18T12:29:06;23.63;;;16.17;;
60847;SDS011;46681;47.696;9.140;2022-12-18T12:35:15;22.57;;;16.20;;
60847;SDS011;46681;47.696;9.140;2022-12-18T12:38:11;23.50;;;16.07;;
60847;SDS011;46681;47.696;9.140;2022-12-18T12:40:46;22.33;;;15.80;;
60847;SDS011;46681;47.696;9.140;2022-12-18T12:43:27;22.23;;;15.17;;
60847;SDS011;46681;47.696;9.140;2022-12-18T12:46:07;23.33;;;16.03;;
60847;SDS011;46681;47.696;9.140;2022-12-18T12:51:26;21.60;;;15.77;;
60847;SDS011;46681;47.696;9.140;2022-12-18T12:53:56;22.47;;;16.13;;
60847;SDS011;46681;47.696;9.140;2022-12-18T12:56:25;23.17;;;15.97;;
60847;SDS011;46681;47.696;9.140;2022-12-18T13:05:23;24.60;;;17.23;;
60847;SDS011;46681;47.696;9.140;2022-12-18T13:10:31;23.67;;;16.67;;
60847;SDS011;46681;47.696;9.140;2022-12-18T13:13:13;23.80;;;17.37;;
60847;SDS011;46681;47.696;9.140;2022-12-18T13:18:31;28.17;;;17.80;;
60847;SDS011;46681;47.696;9.140;2022-12-18T13:21:04;27.37;;;18.27;;
60847;SDS011;46681;47.696;9.140;2022-12-18T13:23:46;25.10;;;16.93;;
60847;SDS011;46681;47.696;9.140;2022-12-18T13:31:12;23.87;;;17.57;;
60847;SDS011;46681;47.696;9.140;2022-12-18T13:36:52;23.40;;;17.30;;
60847;SDS011;46681;47.696;9.140;2022-12-18T13:39:43;24.27;;;18.10;;
60847;SDS011;46681;47.696;9.140;2022-12-18T13:44:40;23.83;;;17.17;;
60847;SDS011;46681;47.696;9.140;2022-12-18T13:50:13;23.77;;;17.03;;
60847;SDS011;46681;47.696;9.140;2022-12-18T13:52:50;21.47;;;16.50;;
60847;SDS011;46681;47.696;9.140;2022-12-18T13:55:21;23.60;;;16.33;;
60847;SDS011;46681;47.696;9.140;2022-12-18T13:58:02;24.07;;;16.73;;
60847;SDS011;46681;47.696;9.140;2022-12-18T14:00:31;25.07;;;16.97;;
60847;SDS011;46681;47.696;9.140;2022-12-18T14:02:57;23.23;;;16.40;;
60847;SDS011;46681;47.696;9.140;2022-12-18T14:07:54;25.17;;;17.87;;
60847;SDS011;46681;47.696;9.140;2022-12-18T14:10:32;23.43;;;17.27;;
60847;SDS011;46681;47.696;9.140;2022-12-18T14:13:04;23.43;;;17.10;;
60847;SDS011;46681;47.696;9.140;2022-12-18T14:15:36;23.93;;;16.57;;
60847;SDS011;46681;47.696;9.140;2022-12-18T14:21:06;23.37;;;15.67;;
60847;SDS011;46681;47.696;9.140;2022-12-18T14:23:48;24.20;;;16.77;;
60847;SDS011;46681;47.696;9.140;2022-12-18T14:26:30;24.97;;;17.20;;
60847;SDS011;46681;47.696;9.140;2022-12-18T14:29:25;23.37;;;16.53;;
60847;SDS011;46681;47.696;9.140;2022-12-18T14:34:48;23.70;;;15.67;;
60847;SDS011;46681;47.696;9.140;2022-12-18T14:37:36;24.17;;;16.10;;
60847;SDS011;46681;47.696;9.140;2022-12-18T14:40:04;23.03;;;16.93;;
60847;SDS011;46681;47.696;9.140;2022-12-18T14:42:42;22.97;;;16.33;;
60847;SDS011;46681;47.696;9.140;2022-12-18T14:45:37;23.73;;;17.10;;
60847;SDS011;46681;47.696;9.140;2022-12-18T14:50:39;23.63;;;16.53;;
60847;SDS011;46681;47.696;9.140;2022-12-18T14:53:20;21.90;;;15.70;;
60847;SDS011;46681;47.696;9.140;2022-12-18T14:55:52;24.40;;;16.90;;
60847;SDS011;46681;47.696;9.140;2022-12-18T14:58:26;22.57;;;17.03;;
60847;SDS011;46681;47.696;9.140;2022-12-18T15:00:57;23.17;;;15.73;;
60847;SDS011;46681;47.696;9.140;2022-12-18T15:03:24;22.20;;;16.90;;
60847;SDS011;46681;47.696;9.140;2022-12-18T15:05:50;23.87;;;17.53;;
60847;SDS011;46681;47.696;9.140;2022-12-18T15:08:34;25.63;;;17.50;;
60847;SDS011;46681;47.696;9.140;2022-12-18T15:17:17;24.03;;;16.53;;
60847;SDS011;46681;47.696;9.140;2022-12-18T15:19:53;21.43;;;15.53;;
60847;SDS011;46681;47.696;9.140;2022-12-18T15:22:37;22.67;;;16.80;;
60847;SDS011;46681;47.696;9.140;2022-12-18T15:25:03;27.57;;;17.97;;
60847;SDS011;46681;47.696;9.140;2022-12-18T15:33:42;20.97;;;15.97;;
60847;SDS011;46681;47.696;9.140;2022-12-18T15:36:17;23.50;;;17.17;;
60847;SDS011;46681;47.696;9.140;2022-12-18T15:38:54;26.80;;;17.60;;
60847;SDS011;46681;47.696;9.140;2022-12-18T15:41:25;21.90;;;16.37;;
60847;SDS011;46681;47.696;9.140;2022-12-18T15:43:52;24.57;;;16.03;;
60847;SDS011;46681;47.696;9.140;2022-12-18T15:46:21;23.67;;;16.70;;
60847;SDS011;46681;47.696;9.140;2022-12-18T15:48:49;24.63;;;16.53;;
60847;SDS011;46681;47.696;9.140;2022-12-18T15:51:46;22.33;;;15.87;;
60847;SDS011;46681;47.696;9.140;2022-12-18T15:54:17;22.00;;;15.57;;
60847;SDS011;46681;47.696;9.140;2022-12-18T15:56:43;23.37;;;16.80;;
60847;SDS011;46681;47.696;9.140;2022-12-18T15:59:14;20.03;;;14.40;;
60847;SDS011;46681;47.696;9.140;2022-12-18T16:01:50;23.57;;;15.83;;
60847;SDS011;46681;47.696;9.140;2022-12-18T16:04:20;20.80;;;15.33;;
60847;SDS011;46681;47.696;9.140;2022-12-18T16:06:50;20.17;;;15.60;;
60847;SDS011;46681;47.696;9.140;2022-12-18T16:09:21;21.53;;;16.03;;
60847;SDS011;46681;47.696;9.140;2022-12-18T16:11:55;21.60;;;15.67;;
60847;SDS011;46681;47.696;9.140;2022-12-18T16:14:33;22.70;;;15.53;;
60847;SDS011;46681;47.696;9.140;2022-12-18T16:17:00;19.60;;;15.07;;
60847;SDS011;46681;47.696;9.140;2022-12-18T16:19:31;22.50;;;15.67;;
60847;SDS011;46681;47.696;9.140;2022-12-18T16:21:59;23.57;;;16.47;;
60847;SDS011;46681;47.696;9.140;2022-12-18T16:24:33;23.80;;;16.47;;
60847;SDS011;46681;47.696;9.140;2022-12-18T16:27:03;21.00;;;15.50;;
60847;SDS011;46681;47.696;9.140;2022-12-18T16:29:29;22.30;;;16.10;;
60847;SDS011;46681;47.696;9.140;2022-12-18T16:31:59;22.50;;;17.17;;
60847;SDS011;46681;47.696;9.140;2022-12-18T16:34:41;24.30;;;17.00;;